Terminal Aerodrome Forecast
Issued by NWS

Home | Current Version | Previous Version | Text Only | Print | Product List | Glossary On
Versions: 1 2 3 4 5 6 7 8 9 10 11 12 13 14 15
000
FTAK31 PAJN 211733
TAFAYA
TAF
PAYA 211733Z 2118/2218 35003KT P6SM SCT200
     FM220900 VRB02KT P6SM BKN120
     FM221500 VRB04KT P6SM SCT080 OVC120
      AMD LTD TO CLD VIS AND WIND 2201/2209=

USA.gov is the U.S. government's official web portal to all federal, state and local government web resources and services.